createdAt,value
2018-09-23T00:01:17.856Z,2.70
2018-09-23T00:03:46.699Z,2.90
2018-09-23T00:06:15.606Z,2.10
2018-09-23T00:08:44.439Z,1.90
2018-09-23T00:11:13.264Z,3.20
2018-09-23T00:13:42.094Z,3.43
2018-09-23T00:16:11.099Z,2.33
2018-09-23T00:18:40.063Z,2.30
2018-09-23T00:21:08.910Z,1.40
2018-09-23T00:23:37.716Z,1.60
2018-09-23T00:26:06.703Z,2.07
2018-09-23T00:28:35.551Z,1.93
2018-09-23T00:31:04.404Z,2.00
2018-09-23T00:33:33.235Z,2.90
2018-09-23T00:36:02.211Z,2.90
2018-09-23T00:38:31.043Z,2.80
2018-09-23T00:40:59.931Z,1.80
2018-09-23T00:43:28.756Z,2.40
2018-09-23T00:45:57.619Z,3.43
2018-09-23T00:48:26.466Z,2.70
2018-09-23T00:50:55.359Z,1.83
2018-09-23T00:53:24.208Z,2.80
2018-09-23T00:55:53.100Z,2.00
2018-09-23T00:58:21.919Z,1.93
2018-09-23T01:00:50.968Z,2.30
2018-09-23T01:03:19.806Z,3.33
2018-09-23T01:05:48.666Z,1.70
2018-09-23T01:08:17.502Z,1.63
2018-09-23T01:10:46.343Z,1.80
2018-09-23T01:13:15.193Z,2.70
2018-09-23T01:15:44.023Z,2.47
2018-09-23T01:18:12.836Z,1.83
2018-09-23T01:20:41.955Z,2.83
2018-09-23T01:23:10.804Z,2.10
2018-09-23T01:25:39.630Z,2.70
2018-09-23T01:28:08.427Z,1.83
2018-09-23T01:30:49.024Z,2.17
2018-09-23T01:33:17.902Z,3.53
2018-09-23T01:35:46.744Z,2.43
2018-09-23T01:38:15.578Z,2.10
2018-09-23T01:40:44.430Z,3.10
2018-09-23T01:43:13.258Z,1.90
2018-09-23T01:45:42.083Z,2.70
2018-09-23T01:48:10.903Z,1.90
2018-09-23T01:50:39.791Z,1.67
2018-09-23T01:53:08.581Z,2.23
2018-09-23T01:55:37.416Z,3.73
2018-09-23T01:58:06.294Z,3.23
2018-09-23T02:00:35.112Z,3.03
2018-09-23T02:03:03.952Z,2.13
2018-09-23T02:05:32.788Z,2.00
2018-09-23T02:08:01.660Z,4.13
2018-09-23T02:10:30.575Z,2.40
2018-09-23T02:12:59.420Z,1.70
2018-09-23T02:15:28.235Z,2.00
2018-09-23T02:17:57.119Z,3.07
2018-09-23T02:20:25.945Z,2.80
2018-09-23T02:22:54.755Z,3.53
2018-09-23T02:25:23.602Z,2.10
2018-09-23T02:27:52.483Z,2.07
2018-09-23T02:30:21.395Z,2.20
2018-09-23T02:32:50.215Z,2.70
2018-09-23T02:35:21.049Z,2.50
2018-09-23T02:37:50.883Z,2.87
2018-09-23T02:40:19.776Z,6.53
2018-09-23T02:42:48.663Z,3.23
2018-09-23T02:45:17.484Z,3.10
2018-09-23T02:47:46.395Z,2.80
2018-09-23T02:50:15.203Z,3.60
2018-09-23T02:52:44.044Z,4.10
2018-09-23T02:55:12.866Z,4.03
2018-09-23T02:57:41.707Z,3.53
2018-09-23T03:01:30.011Z,3.60
2018-09-23T03:03:58.838Z,3.70
2018-09-23T03:06:27.756Z,4.40
2018-09-23T03:08:56.559Z,9.20
2018-09-23T03:11:25.406Z,3.70
2018-09-23T03:13:54.228Z,4.37
2018-09-23T03:16:23.167Z,4.83
2018-09-23T03:18:51.975Z,4.53
2018-09-23T03:21:20.793Z,4.33
2018-09-23T03:23:49.767Z,5.57
2018-09-23T03:26:18.625Z,12.43
2018-09-23T03:28:47.459Z,4.43
2018-09-23T03:31:16.307Z,4.90
2018-09-23T03:33:45.124Z,5.20
2018-09-23T03:36:14.019Z,4.43
2018-09-23T03:38:42.939Z,5.70
2018-09-23T03:41:11.794Z,5.27
2018-09-23T03:43:40.605Z,4.60
2018-09-23T03:46:09.471Z,7.17
2018-09-23T03:48:38.318Z,7.30
2018-09-23T03:51:07.192Z,5.77
2018-09-23T03:53:36.094Z,4.83
2018-09-23T03:56:04.960Z,5.63
2018-09-23T03:58:33.755Z,5.27
2018-09-23T04:01:02.576Z,4.97
2018-09-23T04:03:31.429Z,4.70
2018-09-23T04:06:00.240Z,5.37
2018-09-23T04:08:29.043Z,5.80
2018-09-23T04:10:57.864Z,6.77
2018-09-23T04:13:26.675Z,6.17
2018-09-23T04:15:55.558Z,6.53
2018-09-23T04:18:24.388Z,7.53
2018-09-23T04:20:53.207Z,5.77
2018-09-23T04:23:22.047Z,5.10
2018-09-23T04:25:51.303Z,6.10
2018-09-23T04:28:20.524Z,7.40
2018-09-23T04:30:49.357Z,7.03
2018-09-23T04:33:18.203Z,6.43
2018-09-23T04:35:47.028Z,5.37
2018-09-23T04:38:15.943Z,5.97
2018-09-23T04:40:45.117Z,7.07
2018-09-23T04:43:13.963Z,5.80
2018-09-23T04:45:43.091Z,5.70
2018-09-23T04:48:12.314Z,6.03
2018-09-23T04:50:41.252Z,6.70
2018-09-23T04:53:10.368Z,6.60
2018-09-23T04:55:39.244Z,5.47
2018-09-23T04:58:08.116Z,5.47
2018-09-23T05:00:36.996Z,6.60
2018-09-23T05:03:05.962Z,6.23
2018-09-23T05:05:34.811Z,6.20
2018-09-23T05:08:03.697Z,6.10
2018-09-23T05:10:32.623Z,6.00
2018-09-23T05:13:01.561Z,6.87
2018-09-23T05:15:30.607Z,5.20
2018-09-23T05:17:59.427Z,14.50
2018-09-23T05:20:28.283Z,17.27
2018-09-23T05:22:57.130Z,10.23
2018-09-23T05:25:25.974Z,7.37
2018-09-23T05:28:09.689Z,8.67
2018-09-23T05:30:38.611Z,8.40
2018-09-23T05:33:07.438Z,9.00
2018-09-23T05:35:36.275Z,6.57
2018-09-23T05:38:05.194Z,5.53
2018-09-23T05:40:34.064Z,7.10
2018-09-23T05:43:03.528Z,7.40
2018-09-23T05:45:32.409Z,6.07
2018-09-23T05:48:01.268Z,7.47
2018-09-23T05:50:30.358Z,6.57
2018-09-23T05:52:59.245Z,7.50
2018-09-23T05:55:28.096Z,6.90
2018-09-23T05:57:56.934Z,7.70
2018-09-23T06:00:35.259Z,7.97
2018-09-23T06:03:04.174Z,6.57
2018-09-23T06:05:33.323Z,5.90
2018-09-23T06:08:02.251Z,6.03
2018-09-23T06:10:31.083Z,7.70
2018-09-23T06:12:59.927Z,7.60
2018-09-23T06:15:28.768Z,6.60
2018-09-23T06:17:57.634Z,6.40
2018-09-23T06:20:26.945Z,6.63
2018-09-23T06:22:56.064Z,13.50
2018-09-23T06:25:24.928Z,14.30
2018-09-23T06:27:53.794Z,12.90
2018-09-23T06:30:22.643Z,9.13
2018-09-23T06:32:52.003Z,7.90
2018-09-23T06:35:20.879Z,7.73
2018-09-23T06:37:49.739Z,6.73
2018-09-23T06:40:18.595Z,8.10
2018-09-23T06:42:47.438Z,8.63
2018-09-23T06:45:16.282Z,7.23
2018-09-23T06:47:45.150Z,12.70
2018-09-23T06:50:13.974Z,7.10
2018-09-23T06:52:42.886Z,7.53
2018-09-23T06:55:11.733Z,7.37
2018-09-23T06:57:40.578Z,8.37
2018-09-23T07:00:09.996Z,7.50
2018-09-23T07:02:39.051Z,6.30
2018-09-23T07:05:07.931Z,7.27
2018-09-23T07:07:36.812Z,8.67
2018-09-23T07:10:06.383Z,7.53
2018-09-23T07:12:35.243Z,7.40
2018-09-23T07:15:04.827Z,8.50
2018-09-23T07:17:33.715Z,6.93
2018-09-23T07:20:02.566Z,6.73
2018-09-23T07:22:31.759Z,6.53
2018-09-23T07:25:00.666Z,6.43
2018-09-23T07:27:29.942Z,7.57
2018-09-23T07:29:58.793Z,6.60
2018-09-23T07:32:28.079Z,5.47
2018-09-23T07:34:56.918Z,6.13
2018-09-23T07:37:25.835Z,6.30
2018-09-23T07:39:54.695Z,5.40
2018-09-23T07:42:23.611Z,7.53
2018-09-23T07:44:52.443Z,7.30
2018-09-23T07:47:21.442Z,6.30
2018-09-23T07:49:50.275Z,7.00
2018-09-23T07:52:19.142Z,6.23
2018-09-23T07:54:48.009Z,5.90
2018-09-23T07:57:17.116Z,6.63
2018-09-23T07:59:45.960Z,6.57
2018-09-23T08:02:14.803Z,6.40
2018-09-23T08:04:43.635Z,6.80
2018-09-23T08:07:12.522Z,5.83
2018-09-23T08:09:41.322Z,6.77
2018-09-23T08:12:10.192Z,4.83
2018-09-23T08:14:39.376Z,6.43
2018-09-23T08:17:07.930Z,6.00
2018-09-23T08:19:36.918Z,6.80
2018-09-23T08:22:05.595Z,5.90
2018-09-23T08:24:34.464Z,7.40
2018-09-23T08:27:03.356Z,6.77
2018-09-23T08:29:32.199Z,5.50
2018-09-23T08:32:01.163Z,4.60
2018-09-23T08:34:36.831Z,5.43
2018-09-23T08:37:05.759Z,5.07
2018-09-23T08:39:34.610Z,5.70
2018-09-23T08:42:03.460Z,5.23
2018-09-23T08:44:32.283Z,5.47
2018-09-23T08:47:01.262Z,5.00
2018-09-23T08:49:30.075Z,4.53
2018-09-23T08:51:58.956Z,4.00
2018-09-23T08:54:27.782Z,3.90
2018-09-23T08:56:56.700Z,4.03
2018-09-23T08:59:28.542Z,4.40
2018-09-23T09:01:57.388Z,4.50
2018-09-23T09:04:26.325Z,5.00
2018-09-23T09:06:55.235Z,4.03
2018-09-23T09:09:24.143Z,4.00
2018-09-23T09:11:53.063Z,5.13
2018-09-23T09:14:21.827Z,4.73
2018-09-23T09:16:50.755Z,5.30
2018-09-23T09:19:19.608Z,7.67
2018-09-23T09:21:48.427Z,5.77
2018-09-23T09:24:17.282Z,5.40
2018-09-23T09:26:46.224Z,6.50
2018-09-23T09:29:15.076Z,7.83
2018-09-23T09:31:44.306Z,5.87
2018-09-23T09:34:13.319Z,6.13
2018-09-23T09:36:42.235Z,9.73
2018-09-23T09:39:11.463Z,5.47
2018-09-23T09:41:40.656Z,5.40
2018-09-23T09:44:09.648Z,6.60
2018-09-23T09:46:38.615Z,8.43
2018-09-23T09:49:07.472Z,5.43
2018-09-23T09:51:36.368Z,5.00
2018-09-23T09:54:05.539Z,4.07
2018-09-23T09:56:34.500Z,3.77
2018-09-23T09:59:03.383Z,3.43
2018-09-23T10:01:32.467Z,6.83
2018-09-23T10:04:01.460Z,3.80
2018-09-23T10:06:30.385Z,3.90
2018-09-23T10:08:59.257Z,4.47
2018-09-23T10:11:28.218Z,4.90
2018-09-23T10:13:57.047Z,4.00
2018-09-23T10:16:25.957Z,5.07
2018-09-23T10:18:54.805Z,4.07
2018-09-23T10:21:23.640Z,4.23
2018-09-23T10:23:52.543Z,4.00
2018-09-23T10:26:21.430Z,4.57
2018-09-23T10:28:50.295Z,4.53
2018-09-23T10:31:19.281Z,3.40
2018-09-23T10:33:49.019Z,2.70
2018-09-23T10:36:18.982Z,3.67
2018-09-23T10:38:47.785Z,3.87
2018-09-23T10:41:16.714Z,4.90
2018-09-23T10:43:45.503Z,4.37
2018-09-23T10:46:14.483Z,3.47
2018-09-23T10:48:43.313Z,3.77
2018-09-23T10:51:12.138Z,3.00
2018-09-23T10:53:40.962Z,2.90
2018-09-23T10:56:10.476Z,4.70
2018-09-23T10:58:39.988Z,3.67
2018-09-23T11:01:08.875Z,3.23
2018-09-23T11:03:37.757Z,4.60
2018-09-23T11:06:06.910Z,3.40
2018-09-23T11:08:35.760Z,2.83
2018-09-23T11:11:04.729Z,3.00
2018-09-23T11:13:33.587Z,2.37
2018-09-23T11:16:02.547Z,2.50
2018-09-23T11:18:31.860Z,2.80
2018-09-23T11:21:00.736Z,2.73
2018-09-23T11:23:29.857Z,3.23
2018-09-23T11:25:58.747Z,2.97
2018-09-23T11:28:27.818Z,3.20
2018-09-23T11:30:56.675Z,3.97
2018-09-23T11:33:25.615Z,3.30
2018-09-23T11:35:54.519Z,2.80
2018-09-23T11:38:23.703Z,3.30
2018-09-23T11:40:52.855Z,6.57
2018-09-23T11:43:22.055Z,4.50
2018-09-23T11:45:51.151Z,2.90
2018-09-23T11:48:20.287Z,3.27
2018-09-23T11:50:49.456Z,3.20
2018-09-23T11:53:18.325Z,3.40
2018-09-23T11:55:47.655Z,3.27
2018-09-23T11:58:16.655Z,3.37
2018-09-23T12:00:45.528Z,2.83
2018-09-23T12:03:14.359Z,3.10
2018-09-23T12:05:43.668Z,3.67
2018-09-23T12:08:12.759Z,4.07
2018-09-23T12:10:41.646Z,3.10
2018-09-23T12:13:10.759Z,3.53
2018-09-23T12:15:40.062Z,2.73
2018-09-23T12:18:09.336Z,3.80
2018-09-23T12:20:38.318Z,2.80
2018-09-23T12:23:07.463Z,3.33
2018-09-23T12:25:36.450Z,2.67
2018-09-23T12:28:05.572Z,3.03
2018-09-23T12:30:34.587Z,3.67
2018-09-23T12:33:03.748Z,3.07
2018-09-23T12:35:32.655Z,2.50
2018-09-23T12:38:01.552Z,2.97
2018-09-23T12:40:30.917Z,4.30
2018-09-23T12:42:59.843Z,4.20
2018-09-23T12:45:28.690Z,4.07
2018-09-23T12:47:58.252Z,3.80
2018-09-23T12:50:28.108Z,3.47
2018-09-23T12:52:56.975Z,2.73
2018-09-23T12:55:25.812Z,2.80
2018-09-23T12:57:54.739Z,2.40
2018-09-23T13:00:29.647Z,3.13
2018-09-23T13:02:58.498Z,3.23
2018-09-23T13:05:27.352Z,2.93
2018-09-23T13:07:56.338Z,3.13
2018-09-23T13:10:25.255Z,2.50
2018-09-23T13:12:54.087Z,2.77
2018-09-23T13:15:22.936Z,2.63
2018-09-23T13:17:51.902Z,18.10
2018-09-23T13:20:20.991Z,3.13
2018-09-23T13:22:49.834Z,13.23
2018-09-23T13:25:18.737Z,3.90
2018-09-23T13:27:47.763Z,3.07
2018-09-23T13:30:16.931Z,4.83
2018-09-23T13:32:45.751Z,3.53
2018-09-23T13:35:14.634Z,5.77
2018-09-23T13:37:43.513Z,2.87
2018-09-23T13:40:12.374Z,4.20
2018-09-23T13:42:41.223Z,3.40
2018-09-23T13:45:10.086Z,4.73
2018-09-23T13:47:38.965Z,4.23
2018-09-23T13:50:07.866Z,4.40
2018-09-23T13:52:36.838Z,3.23
2018-09-23T13:55:05.746Z,4.30
2018-09-23T13:57:34.661Z,3.73
2018-09-23T14:00:03.598Z,4.00
2018-09-23T14:02:32.911Z,4.63
2018-09-23T14:05:01.804Z,3.53
2018-09-23T14:07:30.694Z,4.10
2018-09-23T14:09:59.505Z,4.30
2018-09-23T14:12:28.355Z,4.00
2018-09-23T14:14:57.213Z,5.97
2018-09-23T14:17:26.071Z,5.40
2018-09-23T14:19:55.007Z,3.40
2018-09-23T14:22:23.869Z,5.47
2018-09-23T14:24:52.743Z,7.40
2018-09-23T14:27:21.646Z,5.00
2018-09-23T14:29:50.490Z,6.70
2018-09-23T14:32:19.371Z,4.80
2018-09-23T14:34:48.915Z,4.40
2018-09-23T14:37:17.863Z,5.00
2018-09-23T14:39:46.687Z,5.23
2018-09-23T14:42:15.593Z,4.77
2018-09-23T14:44:44.451Z,4.90
2018-09-23T14:47:13.727Z,6.47
2018-09-23T14:49:42.564Z,4.30
2018-09-23T14:52:11.426Z,4.73
2018-09-23T14:54:40.605Z,7.13
2018-09-23T14:57:09.411Z,5.20
2018-09-23T14:59:38.253Z,4.23
2018-09-23T15:02:07.683Z,5.40
2018-09-23T15:04:36.511Z,4.67
2018-09-23T15:07:05.475Z,5.33
2018-09-23T15:09:34.306Z,5.53
2018-09-23T15:12:03.147Z,4.20
2018-09-23T15:14:32.009Z,4.13
2018-09-23T15:17:00.877Z,4.80
2018-09-23T15:19:29.730Z,4.10
2018-09-23T15:21:58.661Z,5.30
2018-09-23T15:24:28.552Z,5.10
2018-09-23T15:26:57.492Z,4.87
2018-09-23T15:29:26.355Z,4.90
2018-09-23T15:31:55.247Z,4.40
2018-09-23T15:34:24.225Z,4.47
2018-09-23T15:36:53.124Z,5.07
2018-09-23T15:39:21.951Z,4.93
2018-09-23T15:41:50.840Z,4.83
2018-09-23T15:44:19.723Z,4.87
2018-09-23T15:46:48.583Z,5.27
2018-09-23T15:49:17.543Z,4.83
2018-09-23T15:51:46.469Z,3.20
2018-09-23T15:54:15.359Z,3.30
2018-09-23T15:56:44.257Z,3.57
2018-09-23T15:59:15.545Z,3.37
2018-09-23T16:01:44.422Z,4.13
2018-09-23T16:04:13.334Z,3.37
2018-09-23T16:06:42.294Z,3.57
2018-09-23T16:09:11.675Z,3.93
2018-09-23T16:11:40.683Z,4.27
2018-09-23T16:14:09.650Z,3.80
2018-09-23T16:16:38.533Z,4.77
2018-09-23T16:19:07.487Z,4.87
2018-09-23T16:21:36.911Z,3.80
2018-09-23T16:24:05.969Z,4.10
2018-09-23T16:26:34.845Z,3.90
2018-09-23T16:29:03.728Z,4.60
2018-09-23T16:31:32.682Z,4.53
2018-09-23T16:34:01.569Z,3.90
2018-09-23T16:36:30.497Z,4.13
2018-09-23T16:38:59.419Z,4.80
2018-09-23T16:41:28.279Z,4.37
2018-09-23T16:43:57.131Z,5.53
2018-09-23T16:46:26.579Z,5.07
2018-09-23T16:48:55.988Z,7.53
2018-09-23T16:51:25.160Z,6.00
2018-09-23T16:53:54.546Z,5.13
2018-09-23T16:56:23.582Z,4.93
2018-09-23T16:58:52.898Z,4.70
2018-09-23T17:01:22.016Z,5.70
2018-09-23T17:03:51.295Z,4.50
2018-09-23T17:06:20.587Z,5.20
2018-09-23T17:08:49.622Z,8.40
2018-09-23T17:11:19.062Z,6.60
2018-09-23T17:13:48.762Z,6.13
2018-09-23T17:16:17.755Z,5.27
2018-09-23T17:18:46.603Z,5.37
2018-09-23T17:21:15.475Z,6.73
2018-09-23T17:23:44.335Z,4.13
2018-09-23T17:26:13.260Z,5.27
2018-09-23T17:28:42.601Z,8.30
2018-09-23T17:31:11.870Z,5.47
2018-09-23T17:33:40.905Z,4.80
2018-09-23T17:36:10.314Z,4.63
2018-09-23T17:38:39.215Z,7.10
2018-09-23T17:41:08.129Z,7.57
2018-09-23T17:43:37.970Z,7.67
2018-09-23T17:46:06.931Z,9.27
2018-09-23T17:48:35.819Z,11.53
2018-09-23T17:51:04.633Z,7.30
2018-09-23T17:53:34.012Z,8.70
2018-09-23T17:56:03.128Z,5.40
2018-09-23T17:58:32.036Z,6.80
2018-09-23T18:01:01.203Z,7.37
2018-09-23T18:03:31.134Z,5.97
2018-09-23T18:06:00.381Z,6.73
2018-09-23T18:08:29.285Z,6.03
2018-09-23T18:10:58.337Z,6.50
2018-09-23T18:13:27.244Z,6.73
2018-09-23T18:15:56.179Z,7.50
2018-09-23T18:18:25.274Z,10.27
2018-09-23T18:20:54.159Z,8.10
2018-09-23T18:23:23.959Z,8.43
2018-09-23T18:25:52.804Z,9.03
2018-09-23T18:28:22.093Z,8.00
2018-09-23T18:30:51.316Z,7.13
2018-09-23T18:33:20.208Z,7.37
2018-09-23T18:35:49.172Z,8.47
2018-09-23T18:38:18.035Z,8.87
2018-09-23T18:40:53.671Z,10.83
2018-09-23T18:43:28.036Z,8.53
2018-09-23T18:45:57.950Z,7.47
2018-09-23T18:48:26.840Z,7.77
2018-09-23T18:50:55.719Z,7.83
2018-09-23T18:53:25.839Z,7.20
2018-09-23T18:55:55.292Z,8.07
2018-09-23T18:58:25.108Z,8.20
2018-09-23T19:00:54.095Z,7.20
2018-09-23T19:03:23.424Z,7.20
2018-09-23T19:05:52.375Z,17.47
2018-09-23T19:08:24.105Z,6.70
2018-09-23T19:10:53.957Z,7.43
2018-09-23T19:13:29.008Z,8.37
2018-09-23T19:16:03.563Z,6.90
2018-09-23T19:18:32.454Z,6.37
2018-09-23T19:21:01.841Z,7.23
2018-09-23T19:23:31.789Z,6.90
2018-09-23T19:26:01.818Z,10.03
2018-09-23T19:28:30.647Z,8.40
2018-09-23T19:30:59.902Z,7.50
2018-09-23T19:33:29.036Z,7.13
2018-09-23T19:35:57.934Z,8.63
2018-09-23T19:38:26.782Z,7.00
2018-09-23T19:40:55.688Z,6.83
2018-09-23T19:43:24.571Z,7.93
2018-09-23T19:45:53.411Z,7.63
2018-09-23T19:48:22.262Z,7.73
2018-09-23T19:50:51.188Z,7.63
2018-09-23T19:53:20.345Z,7.67
2018-09-23T19:55:49.487Z,7.30
2018-09-23T19:58:20.338Z,6.73
2018-09-23T20:00:49.837Z,7.50
2018-09-23T20:03:18.850Z,6.73
2018-09-23T20:05:48.254Z,8.40
2018-09-23T20:08:17.095Z,9.27
2018-09-23T20:10:45.955Z,7.60
2018-09-23T20:13:14.814Z,8.33
2018-09-23T20:15:44.065Z,7.90
2018-09-23T20:18:12.955Z,7.50
2018-09-23T20:20:41.753Z,10.90
2018-09-23T20:23:10.718Z,8.37
2018-09-23T20:25:39.563Z,8.20
2018-09-23T20:28:08.485Z,8.23
2018-09-23T20:30:37.271Z,6.93
2018-09-23T20:33:06.116Z,7.97
2018-09-23T20:35:34.961Z,7.20
2018-09-23T20:38:03.918Z,7.93
2018-09-23T20:40:32.782Z,9.10
2018-09-23T20:43:01.659Z,7.73
2018-09-23T20:45:30.503Z,7.57
2018-09-23T20:47:59.375Z,7.20
2018-09-23T20:50:28.174Z,7.60
2018-09-23T20:52:56.990Z,10.33
2018-09-23T20:55:25.844Z,6.67
2018-09-23T20:57:54.692Z,10.43
2018-09-23T21:00:32.218Z,6.90
2018-09-23T21:03:01.031Z,10.60
2018-09-23T21:05:29.947Z,7.43
2018-09-23T21:07:58.898Z,7.40
2018-09-23T21:10:27.744Z,8.23
2018-09-23T21:12:56.591Z,6.40
2018-09-23T21:15:25.758Z,7.93
2018-09-23T21:17:54.735Z,7.83
2018-09-23T21:20:23.539Z,7.47
2018-09-23T21:22:52.351Z,7.90
2018-09-23T21:25:21.174Z,8.50
2018-09-23T21:27:50.058Z,7.67
2018-09-23T21:30:18.989Z,10.67
2018-09-23T21:32:47.798Z,12.80
2018-09-23T21:35:17.180Z,9.03
2018-09-23T21:37:46.063Z,9.00
2018-09-23T21:40:14.883Z,7.43
2018-09-23T21:42:43.810Z,8.53
2018-09-23T21:45:12.650Z,7.70
2018-09-23T21:47:41.535Z,8.67
2018-09-23T21:50:10.424Z,8.77
2018-09-23T21:52:39.259Z,7.30
2018-09-23T21:55:08.319Z,7.20
2018-09-23T21:57:37.194Z,8.50
2018-09-23T22:00:07.425Z,9.63
2018-09-23T22:02:36.335Z,10.97
2018-09-23T22:05:05.507Z,9.30
2018-09-23T22:07:34.434Z,7.57
2018-09-23T22:10:04.011Z,7.40
2018-09-23T22:12:32.811Z,6.20
2018-09-23T22:15:02.014Z,7.50
2018-09-23T22:18:34.307Z,7.30
2018-09-23T22:21:03.286Z,7.10
2018-09-23T22:23:32.134Z,6.47
2018-09-23T22:26:00.950Z,6.53
2018-09-23T22:28:29.949Z,6.87
2018-09-23T22:30:58.751Z,6.87
2018-09-23T22:33:27.555Z,7.33
2018-09-23T22:35:56.400Z,5.57
2018-09-23T22:38:25.221Z,6.90
2018-09-23T22:40:54.024Z,6.07
2018-09-23T22:43:22.863Z,6.70
2018-09-23T22:45:51.692Z,8.03
2018-09-23T22:48:20.475Z,8.03
2018-09-23T22:50:49.266Z,7.77
2018-09-23T22:53:18.066Z,7.77
2018-09-23T22:55:46.903Z,6.73
2018-09-23T22:58:15.800Z,5.33
2018-09-23T23:00:44.627Z,3.50
2018-09-23T23:03:13.487Z,3.20
2018-09-23T23:05:42.274Z,2.50
2018-09-23T23:08:11.142Z,1.90
2018-09-23T23:10:39.954Z,1.90
2018-09-23T23:13:08.767Z,1.03
2018-09-23T23:15:37.590Z,2.30
2018-09-23T23:18:06.411Z,1.20
2018-09-23T23:20:35.234Z,2.37
2018-09-23T23:23:04.063Z,2.83
2018-09-23T23:25:32.834Z,2.07
2018-09-23T23:28:01.748Z,2.33
2018-09-23T23:30:30.554Z,2.90
2018-09-23T23:32:59.382Z,2.03
2018-09-23T23:35:28.203Z,1.20
2018-09-23T23:37:57.039Z,5.40
2018-09-23T23:40:25.886Z,2.23
2018-09-23T23:42:54.729Z,1.87
2018-09-23T23:45:23.558Z,0.60
2018-09-23T23:47:52.505Z,3.03
2018-09-23T23:50:21.339Z,0.70
2018-09-23T23:52:50.135Z,1.00
2018-09-23T23:55:18.955Z,1.57
2018-09-23T23:57:47.826Z,1.00
